sensor_id;sensor_type;location;lat;lon;timestamp;temperature;humidity
71304;DHT22;59091;47.446;19.148;2024-03-23T00:53:13;10.00;65.96
71304;DHT22;59091;47.446;19.148;2024-03-23T00:55:40;9.95;65.89
71304;DHT22;59091;47.446;19.148;2024-03-23T00:58:05;9.92;66.08
71304;DHT22;59091;47.446;19.148;2024-03-23T01:00:31;9.95;66.11
71304;DHT22;59091;47.446;19.148;2024-03-23T01:02:56;9.90;66.16
71304;DHT22;59091;47.446;19.148;2024-03-23T01:05:22;9.87;66.30
71304;DHT22;59091;47.446;19.148;2024-03-23T01:07:47;9.86;66.31
71304;DHT22;59091;47.446;19.148;2024-03-23T01:10:13;9.79;66.31
71304;DHT22;59091;47.446;19.148;2024-03-23T01:12:38;9.78;66.13
71304;DHT22;59091;47.446;19.148;2024-03-23T01:15:04;9.74;66.74
71304;DHT22;59091;47.446;19.148;2024-03-23T01:17:29;9.72;66.89
71304;DHT22;59091;47.446;19.148;2024-03-23T01:19:55;9.72;66.67
71304;DHT22;59091;47.446;19.148;2024-03-23T01:22:20;9.68;66.58
71304;DHT22;59091;47.446;19.148;2024-03-23T01:24:45;9.66;66.68
71304;DHT22;59091;47.446;19.148;2024-03-23T01:27:11;9.65;66.73
71304;DHT22;59091;47.446;19.148;2024-03-23T01:29:36;9.63;66.88
71304;DHT22;59091;47.446;19.148;2024-03-23T01:32:02;9.63;66.96
71304;DHT22;59091;47.446;19.148;2024-03-23T01:34:27;9.58;67.47
71304;DHT22;59091;47.446;19.148;2024-03-23T01:36:53;9.58;67.74
71304;DHT22;59091;47.446;19.148;2024-03-23T01:39:18;9.56;67.95
71304;DHT22;59091;47.446;19.148;2024-03-23T01:41:44;9.54;68.10
71304;DHT22;59091;47.446;19.148;2024-03-23T01:44:09;9.54;68.10
71304;DHT22;59091;47.446;19.148;2024-03-23T01:46:37;9.49;68.22
71304;DHT22;59091;47.446;19.148;2024-03-23T01:49:04;9.45;68.25
71304;DHT22;59091;47.446;19.148;2024-03-23T01:51:30;9.48;68.23
71304;DHT22;59091;47.446;19.148;2024-03-23T01:53:56;9.44;68.40
71304;DHT22;59091;47.446;19.148;2024-03-23T01:56:22;9.44;68.50
71304;DHT22;59091;47.446;19.148;2024-03-23T01:58:47;9.44;68.40
71304;DHT22;59091;47.446;19.148;2024-03-23T02:01:13;9.42;68.34
71304;DHT22;59091;47.446;19.148;2024-03-23T02:03:38;9.36;68.59
71304;DHT22;59091;47.446;19.148;2024-03-23T02:06:04;9.39;68.51
71304;DHT22;59091;47.446;19.148;2024-03-23T02:08:30;9.36;68.39
71304;DHT22;59091;47.446;19.148;2024-03-23T02:10:56;9.36;68.45
71304;DHT22;59091;47.446;19.148;2024-03-23T02:13:23;9.36;68.49
71304;DHT22;59091;47.446;19.148;2024-03-23T02:15:49;9.32;68.43
71304;DHT22;59091;47.446;19.148;2024-03-23T02:18:14;9.32;68.43
71304;DHT22;59091;47.446;19.148;2024-03-23T02:20:40;9.31;68.69
71304;DHT22;59091;47.446;19.148;2024-03-23T02:23:06;9.30;68.80
71304;DHT22;59091;47.446;19.148;2024-03-23T02:25:32;9.28;69.04
71304;DHT22;59091;47.446;19.148;2024-03-23T02:27:58;9.30;69.05
71304;DHT22;59091;47.446;19.148;2024-03-23T02:30:25;9.28;68.96
71304;DHT22;59091;47.446;19.148;2024-03-23T02:32:50;9.24;68.96
71304;DHT22;59091;47.446;19.148;2024-03-23T02:35:16;9.21;69.09
71304;DHT22;59091;47.446;19.148;2024-03-23T02:37:41;9.21;69.07
71304;DHT22;59091;47.446;19.148;2024-03-23T02:40:07;9.18;69.28
71304;DHT22;59091;47.446;19.148;2024-03-23T02:42:32;9.15;69.32
71304;DHT22;59091;47.446;19.148;2024-03-23T02:44:58;9.17;69.11
71304;DHT22;59091;47.446;19.148;2024-03-23T02:47:23;9.13;69.21
71304;DHT22;59091;47.446;19.148;2024-03-23T02:49:49;9.11;69.32
71304;DHT22;59091;47.446;19.148;2024-03-23T02:52:14;9.11;69.32
71304;DHT22;59091;47.446;19.148;2024-03-23T02:54:40;9.07;69.44
71304;DHT22;59091;47.446;19.148;2024-03-23T02:57:10;9.07;69.34
71304;DHT22;59091;47.446;19.148;2024-03-23T02:59:35;9.05;69.43
71304;DHT22;59091;47.446;19.148;2024-03-23T03:02:01;9.03;69.65
71304;DHT22;59091;47.446;19.148;2024-03-23T03:04:26;9.01;69.77
71304;DHT22;59091;47.446;19.148;2024-03-23T03:06:52;8.96;69.95
71304;DHT22;59091;47.446;19.148;2024-03-23T03:09:17;8.99;69.70
71304;DHT22;59091;47.446;19.148;2024-03-23T03:11:42;8.96;69.73
71304;DHT22;59091;47.446;19.148;2024-03-23T03:14:08;8.93;70.01
71304;DHT22;59091;47.446;19.148;2024-03-23T03:16:33;8.94;70.15
71304;DHT22;59091;47.446;19.148;2024-03-23T03:18:59;8.93;70.14
71304;DHT22;59091;47.446;19.148;2024-03-23T03:21:24;8.90;70.16
71304;DHT22;59091;47.446;19.148;2024-03-23T03:23:50;8.88;70.17
71304;DHT22;59091;47.446;19.148;2024-03-23T03:26:16;8.87;70.09
71304;DHT22;59091;47.446;19.148;2024-03-23T03:28:42;9.01;77.67
71304;DHT22;59091;47.446;19.148;2024-03-23T03:31:09;10.21;86.23
71304;DHT22;59091;47.446;19.148;2024-03-23T03:33:34;11.11;83.70
71304;DHT22;59091;47.446;19.148;2024-03-23T03:36:00;11.88;79.73
71304;DHT22;59091;47.446;19.148;2024-03-23T03:38:25;12.37;76.36
71304;DHT22;59091;47.446;19.148;2024-03-23T03:40:51;11.98;65.41
71304;DHT22;59091;47.446;19.148;2024-03-23T03:43:18;11.55;63.93
71304;DHT22;59091;47.446;19.148;2024-03-23T03:45:51;11.11;63.48
71304;DHT22;59091;47.446;19.148;2024-03-23T03:48:17;10.77;64.43
71304;DHT22;59091;47.446;19.148;2024-03-23T03:50:42;10.53;64.95
71304;DHT22;59091;47.446;19.148;2024-03-23T03:53:07;10.30;65.75
71304;DHT22;59091;47.446;19.148;2024-03-23T03:55:33;10.10;66.31
71304;DHT22;59091;47.446;19.148;2024-03-23T03:57:58;9.93;66.89
71304;DHT22;59091;47.446;19.148;2024-03-23T04:00:24;9.79;67.43
71304;DHT22;59091;47.446;19.148;2024-03-23T04:02:49;9.66;67.84
71304;DHT22;59091;47.446;19.148;2024-03-23T04:05:14;9.55;68.20
71304;DHT22;59091;47.446;19.148;2024-03-23T04:07:40;9.46;68.30
71304;DHT22;59091;47.446;19.148;2024-03-23T04:10:06;9.39;68.37
71304;DHT22;59091;47.446;19.148;2024-03-23T04:12:33;9.35;68.76
71304;DHT22;59091;47.446;19.148;2024-03-23T04:14:59;9.32;69.08
71304;DHT22;59091;47.446;19.148;2024-03-23T04:17:24;9.24;69.07
71304;DHT22;59091;47.446;19.148;2024-03-23T04:19:50;9.18;69.06
71304;DHT22;59091;47.446;19.148;2024-03-23T04:22:17;9.17;69.05
71304;DHT22;59091;47.446;19.148;2024-03-23T04:24:43;9.14;69.03
71304;DHT22;59091;47.446;19.148;2024-03-23T04:27:08;9.14;69.35
71304;DHT22;59091;47.446;19.148;2024-03-23T04:29:34;9.11;69.59
71304;DHT22;59091;47.446;19.148;2024-03-23T04:31:59;9.07;69.94
71304;DHT22;59091;47.446;19.148;2024-03-23T04:34:26;9.08;69.86
71304;DHT22;59091;47.446;19.148;2024-03-23T04:36:51;9.08;69.89
71304;DHT22;59091;47.446;19.148;2024-03-23T04:39:16;9.05;70.23
71304;DHT22;59091;47.446;19.148;2024-03-23T04:41:42;9.00;70.65
71304;DHT22;59091;47.446;19.148;2024-03-23T04:44:07;9.01;70.59
71304;DHT22;59091;47.446;19.148;2024-03-23T04:46:33;9.00;70.64
71304;DHT22;59091;47.446;19.148;2024-03-23T04:48:58;9.01;70.77
71304;DHT22;59091;47.446;19.148;2024-03-23T04:51:24;9.01;70.87
71304;DHT22;59091;47.446;19.148;2024-03-23T04:53:49;9.03;70.89
71304;DHT22;59091;47.446;19.148;2024-03-23T04:56:16;9.03;71.09
71304;DHT22;59091;47.446;19.148;2024-03-23T04:58:42;9.03;71.21
71304;DHT22;59091;47.446;19.148;2024-03-23T05:01:07;9.07;71.08
71304;DHT22;59091;47.446;19.148;2024-03-23T05:03:33;9.07;71.13
71304;DHT22;59091;47.446;19.148;2024-03-23T05:05:58;9.08;71.06
71304;DHT22;59091;47.446;19.148;2024-03-23T05:08:24;9.11;71.00
71304;DHT22;59091;47.446;19.148;2024-03-23T05:10:49;9.10;70.96
71304;DHT22;59091;47.446;19.148;2024-03-23T05:13:14;9.17;70.89
71304;DHT22;59091;47.446;19.148;2024-03-23T05:15:40;9.21;70.96
71304;DHT22;59091;47.446;19.148;2024-03-23T05:18:06;9.20;70.92
71304;DHT22;59091;47.446;19.148;2024-03-23T05:20:31;9.23;71.03
71304;DHT22;59091;47.446;19.148;2024-03-23T05:22:57;9.25;71.27
71304;DHT22;59091;47.446;19.148;2024-03-23T05:25:22;9.30;71.19
71304;DHT22;59091;47.446;19.148;2024-03-23T05:27:48;9.35;71.11
71304;DHT22;59091;47.446;19.148;2024-03-23T05:30:14;9.38;71.15
71304;DHT22;59091;47.446;19.148;2024-03-23T05:32:39;9.41;70.95
71304;DHT22;59091;47.446;19.148;2024-03-23T05:35:09;9.46;70.84
71304;DHT22;59091;47.446;19.148;2024-03-23T05:37:34;9.52;70.80
71304;DHT22;59091;47.446;19.148;2024-03-23T05:40:00;9.58;70.92
71304;DHT22;59091;47.446;19.148;2024-03-23T05:42:26;9.63;71.13
71304;DHT22;59091;47.446;19.148;2024-03-23T05:44:51;9.69;70.88
71304;DHT22;59091;47.446;19.148;2024-03-23T05:47:17;9.75;71.03
71304;DHT22;59091;47.446;19.148;2024-03-23T05:49:43;9.83;70.72
71304;DHT22;59091;47.446;19.148;2024-03-23T05:52:09;9.87;70.73
71304;DHT22;59091;47.446;19.148;2024-03-23T05:54:35;9.95;70.85
71304;DHT22;59091;47.446;19.148;2024-03-23T05:57:01;10.02;70.85
71304;DHT22;59091;47.446;19.148;2024-03-23T05:59:27;10.10;70.53
71304;DHT22;59091;47.446;19.148;2024-03-23T06:01:52;10.17;70.30
71304;DHT22;59091;47.446;19.148;2024-03-23T06:04:18;10.23;70.49
71304;DHT22;59091;47.446;19.148;2024-03-23T06:06:44;10.29;70.45
71304;DHT22;59091;47.446;19.148;2024-03-23T06:09:09;10.34;70.20
71304;DHT22;59091;47.446;19.148;2024-03-23T06:11:35;10.41;70.19
71304;DHT22;59091;47.446;19.148;2024-03-23T06:14:00;10.50;70.16
71304;DHT22;59091;47.446;19.148;2024-03-23T06:16:25;10.58;70.29
71304;DHT22;59091;47.446;19.148;2024-03-23T06:18:52;10.67;70.21
71304;DHT22;59091;47.446;19.148;2024-03-23T06:21:18;10.75;70.41
71304;DHT22;59091;47.446;19.148;2024-03-23T06:23:44;10.82;70.73
71304;DHT22;59091;47.446;19.148;2024-03-23T06:26:17;10.92;70.81
71304;DHT22;59091;47.446;19.148;2024-03-23T06:28:42;11.02;71.18
71304;DHT22;59091;47.446;19.148;2024-03-23T06:31:11;11.18;71.23
71304;DHT22;59091;47.446;19.148;2024-03-23T06:33:37;11.35;71.13
71304;DHT22;59091;47.446;19.148;2024-03-23T06:36:04;11.49;70.86
71304;DHT22;59091;47.446;19.148;2024-03-23T06:38:30;11.55;71.00
71304;DHT22;59091;47.446;19.148;2024-03-23T06:40:55;11.52;71.30
71304;DHT22;59091;47.446;19.148;2024-03-23T06:43:21;11.69;71.18
71304;DHT22;59091;47.446;19.148;2024-03-23T06:45:53;11.71;71.26
71304;DHT22;59091;47.446;19.148;2024-03-23T06:48:19;11.77;70.78
71304;DHT22;59091;47.446;19.148;2024-03-23T06:50:45;11.93;70.27
71304;DHT22;59091;47.446;19.148;2024-03-23T06:53:12;11.94;70.25
71304;DHT22;59091;47.446;19.148;2024-03-23T06:55:37;12.11;69.94
71304;DHT22;59091;47.446;19.148;2024-03-23T06:58:03;12.21;69.25
71304;DHT22;59091;47.446;19.148;2024-03-23T07:00:29;12.39;69.12
71304;DHT22;59091;47.446;19.148;2024-03-23T07:02:54;12.58;70.59
71304;DHT22;59091;47.446;19.148;2024-03-23T07:05:20;12.63;68.64
71304;DHT22;59091;47.446;19.148;2024-03-23T07:07:45;12.49;68.84
71304;DHT22;59091;47.446;19.148;2024-03-23T07:10:11;12.58;68.31
71304;DHT22;59091;47.446;19.148;2024-03-23T07:12:37;12.66;70.49
71304;DHT22;59091;47.446;19.148;2024-03-23T07:15:02;12.75;70.62
71304;DHT22;59091;47.446;19.148;2024-03-23T07:17:28;12.93;70.95
71304;DHT22;59091;47.446;19.148;2024-03-23T07:19:53;13.09;69.56
71304;DHT22;59091;47.446;19.148;2024-03-23T07:22:19;13.37;71.37
71304;DHT22;59091;47.446;19.148;2024-03-23T07:24:44;13.48;67.56
71304;DHT22;59091;47.446;19.148;2024-03-23T07:27:09;13.58;66.27
71304;DHT22;59091;47.446;19.148;2024-03-23T07:29:36;13.70;65.92
71304;DHT22;59091;47.446;19.148;2024-03-23T07:32:01;13.81;65.85
71304;DHT22;59091;47.446;19.148;2024-03-23T07:34:27;14.28;73.80
71304;DHT22;59091;47.446;19.148;2024-03-23T07:36:52;15.12;73.02
71304;DHT22;59091;47.446;19.148;2024-03-23T07:39:18;15.72;70.10
71304;DHT22;59091;47.446;19.148;2024-03-23T07:41:46;15.83;62.66
71304;DHT22;59091;47.446;19.148;2024-03-23T07:44:12;15.81;60.45
71304;DHT22;59091;47.446;19.148;2024-03-23T07:46:37;15.73;61.37
71304;DHT22;59091;47.446;19.148;2024-03-23T07:49:04;15.58;60.36
71304;DHT22;59091;47.446;19.148;2024-03-23T07:51:29;15.66;59.75
71304;DHT22;59091;47.446;19.148;2024-03-23T07:53:55;15.63;59.78
71304;DHT22;59091;47.446;19.148;2024-03-23T07:56:20;15.73;60.50
71304;DHT22;59091;47.446;19.148;2024-03-23T07:58:47;15.94;60.01
71304;DHT22;59091;47.446;19.148;2024-03-23T08:01:14;15.82;59.86
71304;DHT22;59091;47.446;19.148;2024-03-23T08:03:44;16.03;59.26
71304;DHT22;59091;47.446;19.148;2024-03-23T08:06:14;16.38;60.01
71304;DHT22;59091;47.446;19.148;2024-03-23T08:08:41;16.27;58.08
71304;DHT22;59091;47.446;19.148;2024-03-23T08:11:07;16.47;57.57
71304;DHT22;59091;47.446;19.148;2024-03-23T08:13:34;16.91;58.75
71304;DHT22;59091;47.446;19.148;2024-03-23T08:16:00;17.09;56.73
71304;DHT22;59091;47.446;19.148;2024-03-23T08:18:26;17.22;55.33
71304;DHT22;59091;47.446;19.148;2024-03-23T08:21:10;17.36;55.48
71304;DHT22;59091;47.446;19.148;2024-03-23T08:23:36;17.60;54.08
71304;DHT22;59091;47.446;19.148;2024-03-23T08:26:04;17.45;53.72
71304;DHT22;59091;47.446;19.148;2024-03-23T08:28:30;17.59;56.56
71304;DHT22;59091;47.446;19.148;2024-03-23T08:30:56;17.76;53.49
71304;DHT22;59091;47.446;19.148;2024-03-23T08:33:23;17.60;52.84
71304;DHT22;59091;47.446;19.148;2024-03-23T08:38:24;17.76;53.82
71304;DHT22;59091;47.446;19.148;2024-03-23T08:41:00;17.77;53.25
71304;DHT22;59091;47.446;19.148;2024-03-23T08:43:26;17.78;53.23
71304;DHT22;59091;47.446;19.148;2024-03-23T08:45:52;18.05;52.43
71304;DHT22;59091;47.446;19.148;2024-03-23T08:48:19;17.96;52.67
71304;DHT22;59091;47.446;19.148;2024-03-23T08:51:04;17.93;52.48
71304;DHT22;59091;47.446;19.148;2024-03-23T08:53:31;18.24;52.62
71304;DHT22;59091;47.446;19.148;2024-03-23T08:55:57;18.44;52.16
71304;DHT22;59091;47.446;19.148;2024-03-23T08:58:24;18.63;52.20
71304;DHT22;59091;47.446;19.148;2024-03-23T09:00:53;18.76;52.06
71304;DHT22;59091;47.446;19.148;2024-03-23T09:03:24;18.75;52.76
71304;DHT22;59091;47.446;19.148;2024-03-23T09:05:51;18.83;51.79
71304;DHT22;59091;47.446;19.148;2024-03-23T09:08:16;18.51;52.68
71304;DHT22;59091;47.446;19.148;2024-03-23T09:10:42;18.53;52.43
71304;DHT22;59091;47.446;19.148;2024-03-23T09:13:08;18.19;52.98
71304;DHT22;59091;47.446;19.148;2024-03-23T09:15:44;18.27;53.47
71304;DHT22;59091;47.446;19.148;2024-03-23T09:18:10;18.38;56.44
71304;DHT22;59091;47.446;19.148;2024-03-23T09:20:35;18.36;54.03
71304;DHT22;59091;47.446;19.148;2024-03-23T09:23:01;18.51;54.00
71304;DHT22;59091;47.446;19.148;2024-03-23T09:25:26;18.62;53.26
71304;DHT22;59091;47.446;19.148;2024-03-23T09:27:52;18.86;53.58
71304;DHT22;59091;47.446;19.148;2024-03-23T09:30:17;18.95;53.42
71304;DHT22;59091;47.446;19.148;2024-03-23T09:32:46;19.04;52.18
71304;DHT22;59091;47.446;19.148;2024-03-23T09:35:12;19.03;52.53
71304;DHT22;59091;47.446;19.148;2024-03-23T09:37:38;19.14;51.96
71304;DHT22;59091;47.446;19.148;2024-03-23T09:40:09;19.18;52.15
71304;DHT22;59091;47.446;19.148;2024-03-23T09:42:35;19.31;51.96
71304;DHT22;59091;47.446;19.148;2024-03-23T09:45:00;19.35;53.01
71304;DHT22;59091;47.446;19.148;2024-03-23T09:47:26;19.64;52.56
71304;DHT22;59091;47.446;19.148;2024-03-23T09:49:52;19.82;51.20
71304;DHT22;59091;47.446;19.148;2024-03-23T09:52:18;19.89;51.93
71304;DHT22;59091;47.446;19.148;2024-03-23T09:54:44;19.98;51.89
71304;DHT22;59091;47.446;19.148;2024-03-23T09:57:10;20.20;50.82
71304;DHT22;59091;47.446;19.148;2024-03-23T09:59:35;20.29;50.44
71304;DHT22;59091;47.446;19.148;2024-03-23T10:02:01;20.51;50.98
71304;DHT22;59091;47.446;19.148;2024-03-23T10:04:40;20.70;49.50
71304;DHT22;59091;47.446;19.148;2024-03-23T10:07:14;20.87;47.22
71304;DHT22;59091;47.446;19.148;2024-03-23T10:09:40;20.91;45.91
71304;DHT22;59091;47.446;19.148;2024-03-23T10:12:13;20.95;45.26
71304;DHT22;59091;47.446;19.148;2024-03-23T10:14:42;20.94;44.93
71304;DHT22;59091;47.446;19.148;2024-03-23T10:17:21;20.70;43.92
71304;DHT22;59091;47.446;19.148;2024-03-23T10:19:51;21.01;44.45
71304;DHT22;59091;47.446;19.148;2024-03-23T10:22:23;21.18;43.00
71304;DHT22;59091;47.446;19.148;2024-03-23T10:24:51;21.34;42.13
71304;DHT22;59091;47.446;19.148;2024-03-23T10:27:18;21.34;41.82
71304;DHT22;59091;47.446;19.148;2024-03-23T10:29:45;21.61;43.52
71304;DHT22;59091;47.446;19.148;2024-03-23T10:32:11;21.97;44.30
71304;DHT22;59091;47.446;19.148;2024-03-23T10:34:37;21.89;39.53
71304;DHT22;59091;47.446;19.148;2024-03-23T10:37:03;22.07;40.12
71304;DHT22;59091;47.446;19.148;2024-03-23T10:39:32;21.93;39.18
71304;DHT22;59091;47.446;19.148;2024-03-23T10:42:01;21.82;38.15
71304;DHT22;59091;47.446;19.148;2024-03-23T10:44:28;21.97;37.50
71304;DHT22;59091;47.446;19.148;2024-03-23T10:46:55;21.97;37.22
71304;DHT22;59091;47.446;19.148;2024-03-23T10:49:26;21.90;38.04
71304;DHT22;59091;47.446;19.148;2024-03-23T10:51:53;22.14;39.03
71304;DHT22;59091;47.446;19.148;2024-03-23T10:54:19;22.31;39.66
71304;DHT22;59091;47.446;19.148;2024-03-23T10:56:46;22.18;39.21
71304;DHT22;59091;47.446;19.148;2024-03-23T10:59:13;22.04;38.34
71304;DHT22;59091;47.446;19.148;2024-03-23T11:01:59;22.14;38.73
71304;DHT22;59091;47.446;19.148;2024-03-23T11:04:38;22.06;39.55
71304;DHT22;59091;47.446;19.148;2024-03-23T11:09:55;22.24;40.96
71304;DHT22;59091;47.446;19.148;2024-03-23T11:15:05;22.23;39.13
71304;DHT22;59091;47.446;19.148;2024-03-23T11:17:31;22.27;38.81
71304;DHT22;59091;47.446;19.148;2024-03-23T11:20:01;22.48;38.85
71304;DHT22;59091;47.446;19.148;2024-03-23T11:22:46;22.21;38.11
71304;DHT22;59091;47.446;19.148;2024-03-23T11:25:22;22.16;38.36
71304;DHT22;59091;47.446;19.148;2024-03-23T11:27:51;21.89;39.35
71304;DHT22;59091;47.446;19.148;2024-03-23T11:30:18;22.13;39.06
71304;DHT22;59091;47.446;19.148;2024-03-23T11:32:48;21.97;39.79
71304;DHT22;59091;47.446;19.148;2024-03-23T11:35:38;22.03;40.53
71304;DHT22;59091;47.446;19.148;2024-03-23T11:40:32;22.37;39.21
71304;DHT22;59091;47.446;19.148;2024-03-23T11:43:02;22.29;38.90
71304;DHT22;59091;47.446;19.148;2024-03-23T11:45:28;22.13;37.86
71304;DHT22;59091;47.446;19.148;2024-03-23T11:50:43;22.07;37.78
71304;DHT22;59091;47.446;19.148;2024-03-23T11:53:14;22.18;37.37
71304;DHT22;59091;47.446;19.148;2024-03-23T11:55:56;22.00;38.11
71304;DHT22;59091;47.446;19.148;2024-03-23T11:58:23;22.30;37.58
71304;DHT22;59091;47.446;19.148;2024-03-23T12:03:19;22.55;36.13
71304;DHT22;59091;47.446;19.148;2024-03-23T12:05:51;22.65;35.83
71304;DHT22;59091;47.446;19.148;2024-03-23T12:08:19;22.75;35.86
71304;DHT22;59091;47.446;19.148;2024-03-23T12:10:51;22.82;35.22
71304;DHT22;59091;47.446;19.148;2024-03-23T12:13:20;22.95;35.23
71304;DHT22;59091;47.446;19.148;2024-03-23T12:15:49;22.78;34.78
71304;DHT22;59091;47.446;19.148;2024-03-23T12:18:15;22.95;34.70
71304;DHT22;59091;47.446;19.148;2024-03-23T12:20:41;22.91;35.40
71304;DHT22;59091;47.446;19.148;2024-03-23T12:23:08;22.76;35.23
71304;DHT22;59091;47.446;19.148;2024-03-23T12:25:34;22.57;34.76
71304;DHT22;59091;47.446;19.148;2024-03-23T12:28:00;22.50;35.14
71304;DHT22;59091;47.446;19.148;2024-03-23T12:30:25;22.36;35.45
71304;DHT22;59091;47.446;19.148;2024-03-23T12:32:51;22.07;34.75
71304;DHT22;59091;47.446;19.148;2024-03-23T12:35:16;22.40;35.13
71304;DHT22;59091;47.446;19.148;2024-03-23T12:37:43;22.44;35.38
71304;DHT22;59091;47.446;19.148;2024-03-23T12:40:09;22.62;35.41
71304;DHT22;59091;47.446;19.148;2024-03-23T12:42:34;22.52;35.16
71304;DHT22;59091;47.446;19.148;2024-03-23T12:45:00;22.33;34.96
71304;DHT22;59091;47.446;19.148;2024-03-23T12:47:26;22.07;34.93
71304;DHT22;59091;47.446;19.148;2024-03-23T12:49:52;22.33;35.37
71304;DHT22;59091;47.446;19.148;2024-03-23T12:52:17;22.39;36.09
71304;DHT22;59091;47.446;19.148;2024-03-23T12:54:43;22.34;35.19
71304;DHT22;59091;47.446;19.148;2024-03-23T12:57:08;22.36;35.95
71304;DHT22;59091;47.446;19.148;2024-03-23T12:59:34;22.06;36.28
71304;DHT22;59091;47.446;19.148;2024-03-23T13:02:01;21.78;36.54
71304;DHT22;59091;47.446;19.148;2024-03-23T13:04:26;21.75;36.28
71304;DHT22;59091;47.446;19.148;2024-03-23T13:06:51;21.66;36.60
71304;DHT22;59091;47.446;19.148;2024-03-23T13:09:17;21.70;36.12
71304;DHT22;59091;47.446;19.148;2024-03-23T13:11:42;21.43;36.11
71304;DHT22;59091;47.446;19.148;2024-03-23T13:14:08;21.37;36.39
71304;DHT22;59091;47.446;19.148;2024-03-23T13:16:33;21.48;36.61
71304;DHT22;59091;47.446;19.148;2024-03-23T13:18:59;21.45;36.93
71304;DHT22;59091;47.446;19.148;2024-03-23T13:21:26;21.41;37.10
71304;DHT22;59091;47.446;19.148;2024-03-23T13:23:52;21.38;36.65
71304;DHT22;59091;47.446;19.148;2024-03-23T13:26:17;21.46;36.63
71304;DHT22;59091;47.446;19.148;2024-03-23T13:28:43;21.17;37.12
71304;DHT22;59091;47.446;19.148;2024-03-23T13:31:08;21.38;37.46
71304;DHT22;59091;47.446;19.148;2024-03-23T13:33:34;21.49;37.98
71304;DHT22;59091;47.446;19.148;2024-03-23T13:35:59;21.32;37.30
71304;DHT22;59091;47.446;19.148;2024-03-23T13:38:25;21.21;36.54
71304;DHT22;59091;47.446;19.148;2024-03-23T13:43:22;21.21;37.06
71304;DHT22;59091;47.446;19.148;2024-03-23T13:45:49;21.28;37.03
71304;DHT22;59091;47.446;19.148;2024-03-23T13:48:16;21.27;37.28
71304;DHT22;59091;47.446;19.148;2024-03-23T13:50:43;20.98;37.29
71304;DHT22;59091;47.446;19.148;2024-03-23T13:53:08;20.91;37.91
71304;DHT22;59091;47.446;19.148;2024-03-23T13:55:34;20.94;38.31
71304;DHT22;59091;47.446;19.148;2024-03-23T13:57:59;21.05;39.81
71304;DHT22;59091;47.446;19.148;2024-03-23T14:00:25;20.77;37.33
71304;DHT22;59091;47.446;19.148;2024-03-23T14:02:50;20.80;37.30
71304;DHT22;59091;47.446;19.148;2024-03-23T14:05:16;20.92;37.40
71304;DHT22;59091;47.446;19.148;2024-03-23T14:07:41;20.95;37.54
71304;DHT22;59091;47.446;19.148;2024-03-23T14:10:08;21.02;37.26
71304;DHT22;59091;47.446;19.148;2024-03-23T14:12:36;21.02;37.51
71304;DHT22;59091;47.446;19.148;2024-03-23T14:15:05;21.00;37.84
71304;DHT22;59091;47.446;19.148;2024-03-23T14:17:31;21.05;36.97
71304;DHT22;59091;47.446;19.148;2024-03-23T14:19:56;21.04;36.86
71304;DHT22;59091;47.446;19.148;2024-03-23T14:22:28;21.01;36.64
71304;DHT22;59091;47.446;19.148;2024-03-23T14:24:54;20.90;36.79
71304;DHT22;59091;47.446;19.148;2024-03-23T14:27:19;21.00;37.14
71304;DHT22;59091;47.446;19.148;2024-03-23T14:29:47;21.01;37.35
71304;DHT22;59091;47.446;19.148;2024-03-23T14:32:12;20.84;37.53
71304;DHT22;59091;47.446;19.148;2024-03-23T14:34:38;21.00;37.02
71304;DHT22;59091;47.446;19.148;2024-03-23T14:37:04;21.12;38.11
71304;DHT22;59091;47.446;19.148;2024-03-23T14:39:30;20.88;37.89
71304;DHT22;59091;47.446;19.148;2024-03-23T14:41:56;21.08;37.62
71304;DHT22;59091;47.446;19.148;2024-03-23T14:44:22;21.10;37.04
71304;DHT22;59091;47.446;19.148;2024-03-23T14:46:47;20.98;37.04
71304;DHT22;59091;47.446;19.148;2024-03-23T14:49:16;20.79;37.54
71304;DHT22;59091;47.446;19.148;2024-03-23T14:51:42;20.85;37.88
71304;DHT22;59091;47.446;19.148;2024-03-23T14:54:07;20.81;46.47
71304;DHT22;59091;47.446;19.148;2024-03-23T14:56:33;20.83;40.59
71304;DHT22;59091;47.446;19.148;2024-03-23T14:59:00;20.85;38.70
71304;DHT22;59091;47.446;19.148;2024-03-23T15:01:25;20.85;38.71
71304;DHT22;59091;47.446;19.148;2024-03-23T15:03:51;20.83;38.44
71304;DHT22;59091;47.446;19.148;2024-03-23T15:06:18;20.66;38.99
71304;DHT22;59091;47.446;19.148;2024-03-23T15:08:44;20.64;38.64
71304;DHT22;59091;47.446;19.148;2024-03-23T15:11:10;20.66;39.04
71304;DHT22;59091;47.446;19.148;2024-03-23T15:13:36;20.36;38.61
71304;DHT22;59091;47.446;19.148;2024-03-23T15:16:02;20.47;39.08
71304;DHT22;59091;47.446;19.148;2024-03-23T15:18:32;20.20;39.40
71304;DHT22;59091;47.446;19.148;2024-03-23T15:21:01;20.32;40.04
71304;DHT22;59091;47.446;19.148;2024-03-23T15:23:28;20.32;40.13
71304;DHT22;59091;47.446;19.148;2024-03-23T15:25:57;20.25;39.79
71304;DHT22;59091;47.446;19.148;2024-03-23T15:28:23;20.25;40.40
71304;DHT22;59091;47.446;19.148;2024-03-23T15:30:48;20.29;39.63
71304;DHT22;59091;47.446;19.148;2024-03-23T15:33:14;20.28;40.00
71304;DHT22;59091;47.446;19.148;2024-03-23T15:35:39;20.30;40.57
71304;DHT22;59091;47.446;19.148;2024-03-23T15:38:05;20.33;40.45
71304;DHT22;59091;47.446;19.148;2024-03-23T15:40:30;20.33;40.70
71304;DHT22;59091;47.446;19.148;2024-03-23T15:42:56;20.19;40.89
71304;DHT22;59091;47.446;19.148;2024-03-23T15:45:21;20.16;40.82
71304;DHT22;59091;47.446;19.148;2024-03-23T15:47:47;20.26;40.90
71304;DHT22;59091;47.446;19.148;2024-03-23T15:50:12;20.04;41.30
71304;DHT22;59091;47.446;19.148;2024-03-23T15:52:38;20.08;41.36
71304;DHT22;59091;47.446;19.148;2024-03-23T15:55:04;19.99;41.81
71304;DHT22;59091;47.446;19.148;2024-03-23T15:57:32;19.86;41.73
71304;DHT22;59091;47.446;19.148;2024-03-23T15:59:58;19.81;41.72
71304;DHT22;59091;47.446;19.148;2024-03-23T16:02:23;19.81;42.04
71304;DHT22;59091;47.446;19.148;2024-03-23T16:04:49;19.77;42.34
71304;DHT22;59091;47.446;19.148;2024-03-23T16:07:14;19.64;42.75
71304;DHT22;59091;47.446;19.148;2024-03-23T16:09:40;19.58;42.83
71304;DHT22;59091;47.446;19.148;2024-03-23T16:12:05;19.48;43.38
71304;DHT22;59091;47.446;19.148;2024-03-23T16:14:30;19.44;43.54
71304;DHT22;59091;47.446;19.148;2024-03-23T16:16:56;19.50;43.45
71304;DHT22;59091;47.446;19.148;2024-03-23T16:19:21;19.50;43.56
71304;DHT22;59091;47.446;19.148;2024-03-23T16:21:47;19.46;43.64
71304;DHT22;59091;47.446;19.148;2024-03-23T16:24:13;19.43;43.81
71304;DHT22;59091;47.446;19.148;2024-03-23T16:26:38;19.31;44.07